createdAt,value
2023-05-05T00:00:09.322Z,4.40
2023-05-05T00:02:59.268Z,4.90
2023-05-05T00:05:28.661Z,3.60
2023-05-05T00:07:57.421Z,3.50
2023-05-05T00:10:26.352Z,3.20
2023-05-05T00:12:55.269Z,3.20
2023-05-05T00:15:24.124Z,3.60
2023-05-05T00:17:53.185Z,3.10
2023-05-05T00:20:23.301Z,3.30
2023-05-05T00:22:52.100Z,4.80
2023-05-05T00:25:20.974Z,4.10
2023-05-05T00:27:49.728Z,3.90
2023-05-05T00:30:20.662Z,4.10
2023-05-05T00:32:49.694Z,4.60
2023-05-05T00:35:18.576Z,4.60
2023-05-05T00:37:47.587Z,4.20
2023-05-05T00:40:18.957Z,4.40
2023-05-05T00:42:51.030Z,4.40
2023-05-05T00:45:20.290Z,3.90
2023-05-05T00:47:54.652Z,4.10
2023-05-05T00:50:25.914Z,5.00
2023-05-05T00:53:14.814Z,4.10
2023-05-05T00:55:43.779Z,4.20
2023-05-05T00:58:13.851Z,4.60
2023-05-05T01:00:42.835Z,5.70
2023-05-05T01:03:13.391Z,4.40
2023-05-05T01:06:10.809Z,4.80
2023-05-05T01:08:48.265Z,4.10
2023-05-05T01:11:42.686Z,3.60
2023-05-05T01:14:43.718Z,3.60
2023-05-05T01:17:20.644Z,3.40
2023-05-05T01:20:08.569Z,3.70
2023-05-05T01:22:42.380Z,3.70
2023-05-05T01:25:49.283Z,4.10
2023-05-05T01:28:44.194Z,4.10
2023-05-05T01:31:43.193Z,3.50
2023-05-05T01:34:12.558Z,3.90
2023-05-05T01:36:44.456Z,3.40
2023-05-05T01:39:15.258Z,4.20
2023-05-05T01:41:48.536Z,3.20
2023-05-05T01:44:18.598Z,3.90
2023-05-05T01:46:49.032Z,3.50
2023-05-05T01:49:17.928Z,4.30
2023-05-05T01:51:46.994Z,4.40
2023-05-05T01:54:15.849Z,4.40
2023-05-05T01:56:44.589Z,4.00
2023-05-05T01:59:13.379Z,4.60
2023-05-05T02:01:45.204Z,5.50
2023-05-05T02:04:14.652Z,6.60
2023-05-05T02:06:44.194Z,5.30
2023-05-05T02:09:13.458Z,5.70
2023-05-05T02:11:42.257Z,4.60
2023-05-05T02:14:10.957Z,4.30
2023-05-05T02:16:41.607Z,4.60
2023-05-05T02:19:10.299Z,4.40
2023-05-05T02:21:39.217Z,5.20
2023-05-05T02:24:08.842Z,5.00
2023-05-05T02:26:40.050Z,5.10
2023-05-05T02:29:13.232Z,4.80
2023-05-05T02:31:44.576Z,5.20
2023-05-05T02:34:13.988Z,4.80
2023-05-05T02:36:42.859Z,4.90
2023-05-05T02:39:14.913Z,3.70
2023-05-05T02:41:44.280Z,4.10
2023-05-05T02:44:20.198Z,4.70
2023-05-05T02:46:50.114Z,4.90
2023-05-05T02:49:19.136Z,4.50
2023-05-05T02:51:48.397Z,4.50
2023-05-05T02:54:35.013Z,3.50
2023-05-05T02:57:07.228Z,4.90
2023-05-05T02:59:49.855Z,4.10
2023-05-05T03:02:28.322Z,3.80
2023-05-05T03:05:05.280Z,4.60
2023-05-05T03:08:11.334Z,4.40
2023-05-05T03:11:04.144Z,4.60
2023-05-05T03:13:34.998Z,5.00
2023-05-05T03:16:07.031Z,5.50
2023-05-05T03:18:35.945Z,4.90
2023-05-05T03:21:13.324Z,5.20
2023-05-05T03:23:43.386Z,5.00
2023-05-05T03:26:20.693Z,4.80
2023-05-05T03:28:49.671Z,5.00
2023-05-05T03:31:37.701Z,4.80
2023-05-05T03:34:07.727Z,4.80
2023-05-05T03:36:43.325Z,5.40
2023-05-05T03:39:14.188Z,5.20
2023-05-05T03:41:43.091Z,5.90
2023-05-05T03:44:12.088Z,6.50
2023-05-05T03:46:41.021Z,5.80
2023-05-05T03:49:11.461Z,6.90
2023-05-05T03:51:41.223Z,6.10
2023-05-05T03:54:10.450Z,5.10
2023-05-05T03:56:39.564Z,5.50
2023-05-05T03:59:09.233Z,5.60
2023-05-05T04:01:38.083Z,5.60
2023-05-05T04:04:07.133Z,5.80
2023-05-05T04:06:35.914Z,6.00
2023-05-05T04:09:06.299Z,6.60
2023-05-05T04:11:35.302Z,7.40
2023-05-05T04:14:04.070Z,6.00
2023-05-05T04:16:32.982Z,7.40
2023-05-05T04:19:01.792Z,8.00
2023-05-05T04:21:31.892Z,9.70
2023-05-05T04:24:00.996Z,7.50
2023-05-05T04:26:29.759Z,8.40
2023-05-05T04:28:59.006Z,8.00
2023-05-05T04:31:28.064Z,9.30
2023-05-05T04:33:57.032Z,7.30
2023-05-05T04:36:26.342Z,7.90
2023-05-05T04:38:56.442Z,7.70
2023-05-05T04:41:26.794Z,6.90
2023-05-05T04:43:56.779Z,7.10
2023-05-05T04:46:26.158Z,6.90
2023-05-05T04:48:55.048Z,6.60
2023-05-05T04:51:24.210Z,6.00
2023-05-05T04:53:53.496Z,8.90
2023-05-05T04:56:25.534Z,7.00
2023-05-05T04:58:54.657Z,8.40
2023-05-05T05:01:23.454Z,7.10
2023-05-05T05:03:52.444Z,6.50
2023-05-05T05:06:21.426Z,7.20
2023-05-05T05:08:50.601Z,7.40
2023-05-05T05:11:19.885Z,6.30
2023-05-05T05:13:48.690Z,7.60
2023-05-05T05:16:17.527Z,7.70
2023-05-05T05:18:46.551Z,8.70
2023-05-05T05:21:15.433Z,8.30
2023-05-05T05:23:44.452Z,7.60
2023-05-05T05:26:13.494Z,7.10
2023-05-05T05:28:42.781Z,6.90
2023-05-05T05:31:12.115Z,7.10
2023-05-05T05:33:41.140Z,6.60
2023-05-05T05:36:10.144Z,7.60
2023-05-05T05:38:38.923Z,6.00
2023-05-05T05:41:08.448Z,5.20
2023-05-05T05:43:38.395Z,5.90
2023-05-05T05:46:09.168Z,7.70
2023-05-05T05:48:39.565Z,6.10
2023-05-05T05:51:08.477Z,6.50
2023-05-05T05:53:39.500Z,6.00
2023-05-05T05:56:09.133Z,6.50
2023-05-05T05:58:38.412Z,7.40
2023-05-05T06:01:07.444Z,6.10
2023-05-05T06:03:37.403Z,6.70
2023-05-05T06:06:07.847Z,6.80
2023-05-05T06:08:36.872Z,6.40
2023-05-05T06:11:05.846Z,6.40
2023-05-05T06:13:34.769Z,6.60
2023-05-05T06:16:03.849Z,6.20
2023-05-05T06:18:33.446Z,4.50
2023-05-05T06:21:03.052Z,5.30
2023-05-05T06:23:32.669Z,5.10
2023-05-05T06:26:05.075Z,5.10
2023-05-05T06:28:33.973Z,7.90
2023-05-05T06:31:03.127Z,6.20
2023-05-05T06:33:31.926Z,7.00
2023-05-05T06:36:00.777Z,8.60
2023-05-05T06:38:29.776Z,7.70
2023-05-05T06:40:58.968Z,7.40
2023-05-05T06:43:28.678Z,8.20
2023-05-05T06:46:00.238Z,8.20
2023-05-05T06:48:29.195Z,8.00
2023-05-05T06:50:58.089Z,7.20
2023-05-05T06:53:26.934Z,6.90
2023-05-05T06:55:55.710Z,6.00
2023-05-05T06:58:30.711Z,6.10
2023-05-05T07:00:59.911Z,6.60
2023-05-05T07:03:28.717Z,5.70
2023-05-05T07:05:58.412Z,6.10
2023-05-05T07:08:27.201Z,5.10
2023-05-05T07:10:56.044Z,6.60
2023-05-05T07:13:24.935Z,6.80
2023-05-05T07:15:53.716Z,6.50
2023-05-05T07:18:22.589Z,5.90
2023-05-05T07:20:51.333Z,5.80
2023-05-05T07:23:20.257Z,6.60
2023-05-05T07:25:49.234Z,6.50
2023-05-05T07:28:18.155Z,5.50
2023-05-05T07:30:47.000Z,5.50
2023-05-05T07:33:16.137Z,4.20
2023-05-05T07:35:45.554Z,4.30
2023-05-05T07:38:14.527Z,5.60
2023-05-05T07:40:43.397Z,4.20
2023-05-05T07:43:12.202Z,5.00
2023-05-05T07:45:41.252Z,4.30
2023-05-05T07:48:10.180Z,3.60
2023-05-05T07:50:39.025Z,3.70
2023-05-05T07:53:14.471Z,3.40
2023-05-05T07:55:44.551Z,3.40
2023-05-05T07:58:13.310Z,3.40
2023-05-05T08:00:44.139Z,3.10
2023-05-05T08:03:13.299Z,3.30
2023-05-05T08:05:42.392Z,2.70
2023-05-05T08:08:11.542Z,2.80
2023-05-05T08:10:40.477Z,3.50
2023-05-05T08:13:09.248Z,2.80
2023-05-05T08:15:38.241Z,3.00
2023-05-05T08:18:07.065Z,3.00
2023-05-05T08:20:35.913Z,2.90
2023-05-05T08:23:04.579Z,2.70
2023-05-05T08:25:33.600Z,2.90
2023-05-05T08:28:02.434Z,2.20
2023-05-05T08:30:31.653Z,1.90
2023-05-05T08:33:00.929Z,1.90
2023-05-05T08:35:29.684Z,2.20
2023-05-05T08:37:59.312Z,1.50
2023-05-05T08:40:42.241Z,1.80
2023-05-05T08:43:11.596Z,1.90
2023-05-05T08:45:41.168Z,1.80
2023-05-05T08:48:10.358Z,1.40
2023-05-05T08:50:39.778Z,2.00
2023-05-05T08:53:17.669Z,2.00
2023-05-05T08:55:52.219Z,2.00
2023-05-05T08:58:21.604Z,1.70
2023-05-05T09:00:53.500Z,1.80
2023-05-05T09:03:25.025Z,2.30
2023-05-05T09:05:54.027Z,2.10
2023-05-05T09:08:23.180Z,1.70
2023-05-05T09:10:52.102Z,2.20
2023-05-05T09:13:20.922Z,1.90
2023-05-05T09:15:49.711Z,1.80
2023-05-05T09:18:18.457Z,1.40
2023-05-05T09:20:47.443Z,1.70
2023-05-05T09:23:17.800Z,1.50
2023-05-05T09:26:04.757Z,1.20
2023-05-05T09:28:33.510Z,1.20
2023-05-05T09:31:16.280Z,1.30
2023-05-05T09:33:45.687Z,4.10
2023-05-05T09:36:14.473Z,1.60
2023-05-05T09:38:45.044Z,1.20
2023-05-05T09:41:13.864Z,1.50
2023-05-05T09:43:52.241Z,1.30
2023-05-05T09:46:21.217Z,1.30
2023-05-05T09:48:50.052Z,2.20
2023-05-05T09:51:28.754Z,1.70
2023-05-05T09:53:57.558Z,2.00
2023-05-05T09:56:39.706Z,1.50
2023-05-05T09:59:12.244Z,1.60
2023-05-05T10:01:43.643Z,1.60
2023-05-05T10:04:28.860Z,1.80
2023-05-05T10:06:58.294Z,1.40
2023-05-05T10:09:27.532Z,1.90
2023-05-05T10:11:56.959Z,1.80
2023-05-05T10:14:26.006Z,1.50
2023-05-05T10:16:55.575Z,1.90
2023-05-05T10:19:24.709Z,1.70
2023-05-05T10:21:57.954Z,2.10
2023-05-05T10:24:35.073Z,1.50
2023-05-05T10:27:04.700Z,2.20
2023-05-05T10:30:02.790Z,3.70
2023-05-05T10:32:56.876Z,2.00
2023-05-05T10:35:24.447Z,1.60
2023-05-05T10:37:53.794Z,1.50
2023-05-05T10:40:22.801Z,1.80
2023-05-05T10:42:51.932Z,1.80
2023-05-05T10:45:21.409Z,1.60
2023-05-05T10:47:50.442Z,1.30
2023-05-05T10:50:30.159Z,1.80
2023-05-05T10:53:15.159Z,1.90
2023-05-05T10:56:08.731Z,1.70
2023-05-05T10:58:55.483Z,1.70
2023-05-05T11:01:37.631Z,1.30
2023-05-05T11:04:20.542Z,1.50
2023-05-05T11:07:24.792Z,1.80
2023-05-05T11:10:03.135Z,1.90
2023-05-05T11:12:32.851Z,1.70
2023-05-05T11:15:26.443Z,2.20
2023-05-05T11:17:56.448Z,2.00
2023-05-05T11:20:48.100Z,1.50
2023-05-05T11:23:19.761Z,1.70
2023-05-05T11:25:48.645Z,1.40
2023-05-05T11:28:25.949Z,1.70
2023-05-05T11:30:58.981Z,1.60
2023-05-05T11:33:31.063Z,1.60
2023-05-05T11:36:00.760Z,1.90
2023-05-05T11:38:39.622Z,1.90
2023-05-05T11:41:10.495Z,2.50
2023-05-05T11:43:40.171Z,3.20
2023-05-05T11:46:15.867Z,2.20
2023-05-05T11:48:48.281Z,1.80
2023-05-05T11:51:18.304Z,3.10
2023-05-05T11:53:48.589Z,14.20
2023-05-05T11:56:22.333Z,1.80
2023-05-05T11:59:11.513Z,2.20
2023-05-05T12:01:43.515Z,2.60
2023-05-05T12:04:13.270Z,2.90
2023-05-05T12:06:42.888Z,2.00
2023-05-05T12:09:18.798Z,2.00
2023-05-05T12:11:57.590Z,1.90
2023-05-05T12:14:26.653Z,1.80
2023-05-05T12:16:58.985Z,1.70
2023-05-05T12:19:33.698Z,1.70
2023-05-05T12:22:03.168Z,2.10
2023-05-05T12:24:32.081Z,1.80
2023-05-05T12:27:11.154Z,1.60
2023-05-05T12:29:39.927Z,2.10
2023-05-05T12:32:19.771Z,1.70
2023-05-05T12:34:49.546Z,1.80
2023-05-05T12:37:19.384Z,2.30
2023-05-05T12:39:48.829Z,2.20
2023-05-05T12:42:17.919Z,1.70
2023-05-05T12:44:47.170Z,1.80
2023-05-05T12:47:23.292Z,1.90
2023-05-05T12:49:52.247Z,2.10
2023-05-05T12:52:21.406Z,1.40
2023-05-05T12:54:54.955Z,1.90
2023-05-05T12:57:24.073Z,1.50
2023-05-05T12:59:53.329Z,1.50
2023-05-05T13:02:35.625Z,2.10
2023-05-05T13:05:05.138Z,1.90
2023-05-05T13:07:33.812Z,2.00
2023-05-05T13:10:11.399Z,1.70
2023-05-05T13:12:40.284Z,1.80
2023-05-05T13:15:10.185Z,1.80
2023-05-05T13:17:39.225Z,1.60
2023-05-05T13:20:10.385Z,2.10
2023-05-05T13:22:39.202Z,2.10
2023-05-05T13:25:08.345Z,1.90
2023-05-05T13:27:38.131Z,2.90
2023-05-05T13:30:07.575Z,3.10
2023-05-05T13:32:36.901Z,1.80
2023-05-05T13:35:06.452Z,1.60
2023-05-05T13:37:35.336Z,3.10
2023-05-05T13:40:04.189Z,2.10
2023-05-05T13:42:32.997Z,2.40
2023-05-05T13:45:01.747Z,1.70
2023-05-05T13:47:30.503Z,2.10
2023-05-05T13:49:59.418Z,2.70
2023-05-05T13:52:29.892Z,1.60
2023-05-05T13:55:01.212Z,1.40
2023-05-05T13:57:30.167Z,2.00
2023-05-05T13:59:59.190Z,1.40
2023-05-05T14:02:27.910Z,1.20
2023-05-05T14:04:56.662Z,1.40
2023-05-05T14:07:25.364Z,1.80
2023-05-05T14:09:55.368Z,1.60
2023-05-05T14:12:24.211Z,1.60
2023-05-05T14:14:53.008Z,1.80
2023-05-05T14:17:21.708Z,2.00
2023-05-05T14:19:50.766Z,1.40
2023-05-05T14:22:19.580Z,2.00
2023-05-05T14:24:48.711Z,1.90
2023-05-05T14:27:17.590Z,1.30
2023-05-05T14:29:46.143Z,1.80
2023-05-05T14:32:14.956Z,1.30
2023-05-05T14:34:43.794Z,1.70
2023-05-05T14:37:12.515Z,1.70
2023-05-05T14:39:41.379Z,1.30
2023-05-05T14:42:10.130Z,0.90
2023-05-05T14:44:38.878Z,1.40
2023-05-05T14:47:07.457Z,1.50
2023-05-05T14:49:36.225Z,1.30
2023-05-05T14:52:04.978Z,1.80
2023-05-05T14:54:33.679Z,1.50
2023-05-05T14:57:02.644Z,1.80
2023-05-05T14:59:31.441Z,1.60
2023-05-05T15:02:00.384Z,1.10
2023-05-05T15:04:35.363Z,1.10
2023-05-05T15:07:04.729Z,1.50
2023-05-05T15:09:33.764Z,1.10
2023-05-05T15:12:02.521Z,1.30
2023-05-05T15:14:31.208Z,1.70
2023-05-05T15:16:59.882Z,1.50
2023-05-05T15:19:28.586Z,1.60
2023-05-05T15:21:57.366Z,1.40
2023-05-05T15:24:26.551Z,1.70
2023-05-05T15:26:55.281Z,1.30
2023-05-05T15:29:24.091Z,1.60
2023-05-05T15:31:52.977Z,1.40
2023-05-05T15:34:21.620Z,2.20
2023-05-05T15:36:51.365Z,1.70
2023-05-05T15:39:20.279Z,1.60
2023-05-05T15:41:49.180Z,1.60
2023-05-05T15:44:18.035Z,1.40
2023-05-05T15:46:48.348Z,1.80
2023-05-05T15:49:19.078Z,1.70
2023-05-05T15:51:48.774Z,1.50
2023-05-05T15:54:17.561Z,1.50
2023-05-05T15:56:46.320Z,1.30
2023-05-05T15:59:15.051Z,2.10
2023-05-05T16:01:43.968Z,1.50
2023-05-05T16:04:12.812Z,1.80
2023-05-05T16:06:41.676Z,1.90
2023-05-05T16:09:10.668Z,1.70
2023-05-05T16:11:39.505Z,1.50
2023-05-05T16:14:08.252Z,1.20
2023-05-05T16:16:36.945Z,1.30
2023-05-05T16:19:05.838Z,1.30
2023-05-05T16:21:34.650Z,1.20
2023-05-05T16:24:03.722Z,1.30
2023-05-05T16:26:32.568Z,1.40
2023-05-05T16:29:01.506Z,1.20
2023-05-05T16:31:30.462Z,2.00
2023-05-05T16:33:59.407Z,1.40
2023-05-05T16:36:28.353Z,2.00
2023-05-05T16:38:57.225Z,1.70
2023-05-05T16:41:26.620Z,1.20
2023-05-05T16:43:55.608Z,1.70
2023-05-05T16:46:24.610Z,1.80
2023-05-05T16:48:53.616Z,1.50
2023-05-05T16:51:22.452Z,1.40
2023-05-05T16:53:51.318Z,1.60
2023-05-05T16:56:20.162Z,2.10
2023-05-05T16:58:49.439Z,1.50
2023-05-05T17:01:18.190Z,1.70
2023-05-05T17:03:47.083Z,1.60
2023-05-05T17:06:18.748Z,1.60
2023-05-05T17:08:47.712Z,1.50
2023-05-05T17:11:16.571Z,2.70
2023-05-05T17:13:45.362Z,2.30
2023-05-05T17:16:14.240Z,1.40
2023-05-05T17:18:43.085Z,1.60
2023-05-05T17:21:12.152Z,1.80
2023-05-05T17:23:40.912Z,1.70
2023-05-05T17:26:09.644Z,2.10
2023-05-05T17:28:38.536Z,4.00
2023-05-05T17:31:07.356Z,2.90
2023-05-05T17:33:36.095Z,3.50
2023-05-05T17:36:05.182Z,4.00
2023-05-05T17:38:34.025Z,4.40
2023-05-05T17:41:02.992Z,4.00
2023-05-05T17:43:31.809Z,4.70
2023-05-05T17:46:00.551Z,3.50
2023-05-05T17:48:29.605Z,3.10
2023-05-05T17:50:58.619Z,3.40
2023-05-05T17:53:27.653Z,2.80
2023-05-05T17:55:56.409Z,3.10
2023-05-05T17:58:25.299Z,3.20
2023-05-05T18:00:54.217Z,3.30
2023-05-05T18:03:23.197Z,5.00
2023-05-05T18:05:52.110Z,4.00
2023-05-05T18:08:20.924Z,4.20
2023-05-05T18:10:49.692Z,3.80
2023-05-05T18:13:20.188Z,3.40
2023-05-05T18:15:49.213Z,3.30
2023-05-05T18:18:18.151Z,3.20
2023-05-05T18:20:47.061Z,3.20
2023-05-05T18:23:16.124Z,4.10
2023-05-05T18:25:44.877Z,3.60
2023-05-05T18:28:13.631Z,3.80
2023-05-05T18:30:42.378Z,4.20
2023-05-05T18:33:11.246Z,4.30
2023-05-05T18:35:39.931Z,4.70
2023-05-05T18:38:09.011Z,4.20
2023-05-05T18:40:37.849Z,5.10
2023-05-05T18:43:06.895Z,5.20
2023-05-05T18:45:35.899Z,4.40
2023-05-05T18:48:04.858Z,4.60
2023-05-05T18:50:33.647Z,4.90
2023-05-05T18:53:02.784Z,4.50
2023-05-05T18:55:31.522Z,5.20
2023-05-05T18:58:00.374Z,4.60
2023-05-05T19:00:29.354Z,4.60
2023-05-05T19:02:58.265Z,4.50
2023-05-05T19:05:27.532Z,4.80
2023-05-05T19:10:29.281Z,4.30
2023-05-05T19:12:59.480Z,4.60
2023-05-05T19:15:28.241Z,4.60
2023-05-05T19:17:57.242Z,4.50
2023-05-05T19:20:26.162Z,4.10
2023-05-05T19:22:55.747Z,5.10
2023-05-05T19:25:24.372Z,5.10
2023-05-05T19:27:53.095Z,4.70
2023-05-05T19:30:22.282Z,5.10
2023-05-05T19:32:51.061Z,5.80
2023-05-05T19:35:19.739Z,6.50
2023-05-05T19:37:48.669Z,6.50
2023-05-05T19:40:17.479Z,6.30
2023-05-05T19:42:46.353Z,6.30
2023-05-05T19:45:15.168Z,6.60
2023-05-05T19:47:43.986Z,6.80
2023-05-05T19:50:13.066Z,9.00
2023-05-05T19:52:42.249Z,8.70
2023-05-05T19:55:11.072Z,8.30
2023-05-05T19:57:40.704Z,7.20
2023-05-05T20:00:11.327Z,8.30
2023-05-05T20:02:41.778Z,8.60
2023-05-05T20:05:14.178Z,8.80
2023-05-05T20:07:43.163Z,8.70
2023-05-05T20:10:13.774Z,8.30
2023-05-05T20:12:48.530Z,6.90
2023-05-05T20:15:19.807Z,7.20
2023-05-05T20:17:48.856Z,6.70
2023-05-05T20:20:22.104Z,7.10
2023-05-05T20:22:51.002Z,6.50
2023-05-05T20:25:19.751Z,8.50
2023-05-05T20:27:48.533Z,7.60
2023-05-05T20:30:17.413Z,7.60
2023-05-05T20:32:46.418Z,7.70
2023-05-05T20:35:15.259Z,9.00
2023-05-05T20:37:45.657Z,7.90
2023-05-05T20:40:14.442Z,7.20
2023-05-05T20:42:43.207Z,7.70
2023-05-05T20:45:14.442Z,6.90
2023-05-05T20:47:43.243Z,6.40
2023-05-05T20:50:12.294Z,8.40
2023-05-05T20:52:41.120Z,7.30
2023-05-05T20:55:10.048Z,6.50
2023-05-05T20:57:39.000Z,6.90
2023-05-05T21:00:08.473Z,7.10
2023-05-05T21:02:37.672Z,7.50
2023-05-05T21:05:07.096Z,7.00
2023-05-05T21:07:36.087Z,7.90
2023-05-05T21:10:08.481Z,8.30
2023-05-05T21:12:37.739Z,7.80
2023-05-05T21:15:07.545Z,8.20
2023-05-05T21:17:36.805Z,9.10
2023-05-05T21:20:06.163Z,9.80
2023-05-05T21:22:34.916Z,9.80
2023-05-05T21:25:14.508Z,9.10
2023-05-05T21:27:43.402Z,11.10
2023-05-05T21:30:12.737Z,9.90
2023-05-05T21:32:41.868Z,9.20
2023-05-05T21:35:10.980Z,7.20
2023-05-05T21:37:40.159Z,9.00
2023-05-05T21:40:13.876Z,9.50
2023-05-05T21:42:43.356Z,10.10
2023-05-05T21:45:12.327Z,8.20
2023-05-05T21:47:41.207Z,8.00
2023-05-05T21:50:11.558Z,9.60
2023-05-05T21:52:41.375Z,9.40
2023-05-05T21:55:11.524Z,8.60
2023-05-05T21:57:40.425Z,7.50
2023-05-05T22:00:10.131Z,7.40
2023-05-05T22:02:41.880Z,9.10
2023-05-05T22:05:10.784Z,7.40
2023-05-05T22:07:40.755Z,8.00
2023-05-05T22:10:10.164Z,7.00
2023-05-05T22:12:39.344Z,7.10
2023-05-05T22:15:09.193Z,6.80
2023-05-05T22:17:38.248Z,6.60
2023-05-05T22:20:09.580Z,7.20
2023-05-05T22:22:38.738Z,7.00
2023-05-05T22:25:08.147Z,6.80
2023-05-05T22:27:37.091Z,7.40
2023-05-05T22:30:06.675Z,9.70
2023-05-05T22:32:35.591Z,8.30
2023-05-05T22:35:05.285Z,8.80
2023-05-05T22:37:34.152Z,9.30
2023-05-05T22:40:03.125Z,6.70
2023-05-05T22:42:31.913Z,6.80
2023-05-05T22:45:00.717Z,8.70
2023-05-05T22:47:29.506Z,8.00
2023-05-05T22:49:58.630Z,7.20
2023-05-05T22:52:29.160Z,8.10
2023-05-05T22:54:58.035Z,7.60
2023-05-05T22:57:26.830Z,8.90
2023-05-05T22:59:55.576Z,7.40
2023-05-05T23:02:24.628Z,7.40
2023-05-05T23:04:53.433Z,6.80
2023-05-05T23:07:22.153Z,7.60
2023-05-05T23:09:50.849Z,6.90
2023-05-05T23:12:22.657Z,9.10
2023-05-05T23:14:51.733Z,8.20
2023-05-05T23:17:20.799Z,8.00
2023-05-05T23:19:49.633Z,9.90
2023-05-05T23:22:18.632Z,8.60
2023-05-05T23:24:47.463Z,9.90
2023-05-05T23:27:16.177Z,8.90
2023-05-05T23:29:44.953Z,8.00
2023-05-05T23:32:13.821Z,8.50
2023-05-05T23:34:42.679Z,8.00
2023-05-05T23:37:13.424Z,7.40
2023-05-05T23:39:42.575Z,9.30
2023-05-05T23:42:11.358Z,8.40
2023-05-05T23:44:40.173Z,7.90
2023-05-05T23:47:09.135Z,8.40
2023-05-05T23:49:38.660Z,6.70
2023-05-05T23:52:07.422Z,6.70
2023-05-05T23:54:36.164Z,6.90
2023-05-05T23:57:04.970Z,6.00
2023-05-05T23:59:33.791Z,7.00
